createdAt,value
2018-09-28T00:00:52.969Z,10.50
2018-09-28T00:01:52.980Z,11.80
2018-09-28T00:02:52.901Z,11.80
2018-09-28T00:03:53.933Z,11.50
2018-09-28T00:05:47.573Z,12.70
2018-09-28T00:06:48.613Z,14.70
2018-09-28T00:07:47.490Z,12.00
2018-09-28T00:08:47.490Z,11.00
2018-09-28T00:09:47.439Z,12.30
2018-09-28T00:10:47.510Z,11.40
2018-09-28T00:11:47.392Z,10.10
2018-09-28T00:12:47.412Z,11.80
2018-09-28T00:13:47.348Z,12.80
2018-09-28T00:14:47.331Z,9.70
2018-09-28T00:15:47.290Z,10.50
2018-09-28T00:16:48.371Z,13.10
2018-09-28T00:17:47.230Z,12.10
2018-09-28T00:18:47.245Z,14.20
2018-09-28T00:19:47.192Z,10.70
2018-09-28T00:20:47.257Z,11.70
2018-09-28T00:21:47.134Z,9.60
2018-09-28T00:22:47.176Z,10.50
2018-09-28T00:23:47.077Z,10.50
2018-09-28T00:24:47.081Z,10.70
2018-09-28T00:25:47.042Z,10.50
2018-09-28T00:26:47.107Z,9.90
2018-09-28T00:27:46.978Z,11.80
2018-09-28T00:28:47.024Z,11.60
2018-09-28T00:29:46.964Z,11.10
2018-09-28T00:30:46.917Z,13.00
2018-09-28T00:31:46.873Z,14.50
2018-09-28T00:32:46.940Z,11.50
2018-09-28T00:33:46.840Z,17.00
2018-09-28T00:34:46.845Z,13.00
2018-09-28T00:35:46.779Z,11.90
2018-09-28T00:36:46.849Z,17.30
2018-09-28T00:37:46.725Z,14.00
2018-09-28T00:38:46.763Z,12.00
2018-09-28T00:39:46.687Z,11.50
2018-09-28T00:40:46.681Z,15.30
2018-09-28T00:41:46.638Z,12.90
2018-09-28T00:42:46.692Z,15.50
2018-09-28T00:43:46.585Z,15.70
2018-09-28T00:44:46.601Z,16.30
2018-09-28T00:45:46.524Z,14.00
2018-09-28T00:46:47.551Z,16.10
2018-09-28T00:47:47.086Z,15.40
2018-09-28T00:48:46.531Z,14.50
2018-09-28T00:49:46.433Z,15.50
2018-09-28T00:50:46.426Z,13.20
2018-09-28T00:51:46.370Z,13.00
2018-09-28T00:52:46.451Z,14.40
2018-09-28T00:53:46.319Z,12.80
2018-09-28T00:54:46.365Z,12.80
2018-09-28T00:55:46.275Z,13.10
2018-09-28T00:56:46.265Z,12.80
2018-09-28T00:57:46.238Z,14.10
2018-09-28T00:58:46.281Z,16.70
2018-09-28T00:59:46.174Z,15.00
2018-09-28T01:00:46.187Z,15.50
2018-09-28T01:01:46.132Z,17.10
2018-09-28T01:02:47.128Z,13.20
2018-09-28T01:03:46.069Z,15.50
2018-09-28T01:04:47.144Z,16.10
2018-09-28T01:05:46.025Z,16.80
2018-09-28T01:07:35.024Z,15.10
2018-09-28T01:08:34.959Z,17.70
2018-09-28T01:09:34.994Z,13.30
2018-09-28T01:10:34.912Z,15.40
2018-09-28T01:11:35.002Z,15.10
2018-09-28T01:12:34.863Z,16.70
2018-09-28T01:13:34.907Z,14.20
2018-09-28T01:14:34.824Z,12.70
2018-09-28T01:15:34.846Z,14.40
2018-09-28T01:16:34.766Z,15.50
2018-09-28T01:17:34.838Z,14.80
2018-09-28T01:18:34.721Z,16.10
2018-09-28T01:19:34.744Z,16.80
2018-09-28T01:20:34.674Z,15.70
2018-09-28T01:21:34.661Z,16.50
2018-09-28T01:22:34.613Z,14.80
2018-09-28T01:23:34.670Z,18.30
2018-09-28T01:24:34.571Z,18.40
2018-09-28T01:25:34.573Z,16.30
2018-09-28T01:26:34.513Z,17.10
2018-09-28T01:27:35.526Z,17.40
2018-09-28T01:28:34.471Z,14.40
2018-09-28T01:29:34.511Z,17.60
2018-09-28T01:30:34.403Z,18.30
2018-09-28T01:31:34.409Z,18.00
2018-09-28T01:32:34.351Z,17.60
2018-09-28T01:33:34.356Z,16.60
2018-09-28T01:34:34.300Z,15.90
2018-09-28T01:35:35.363Z,14.90
2018-09-28T01:36:34.248Z,18.00
2018-09-28T01:37:35.280Z,19.40
2018-09-28T01:38:34.192Z,17.70
2018-09-28T01:39:34.280Z,19.00
2018-09-28T01:40:34.151Z,17.90
2018-09-28T01:41:34.172Z,17.30
2018-09-28T01:42:34.105Z,19.90
2018-09-28T01:43:35.107Z,18.10
2018-09-28T01:44:34.071Z,15.90
2018-09-28T01:45:34.093Z,20.80
2018-09-28T01:46:33.996Z,17.10
2018-09-28T01:47:34.003Z,16.80
2018-09-28T01:48:33.945Z,17.40
2018-09-28T01:49:34.026Z,15.60
2018-09-28T01:50:33.880Z,19.60
2018-09-28T01:51:33.940Z,17.90
2018-09-28T01:52:33.836Z,17.90
2018-09-28T01:53:33.842Z,19.40
2018-09-28T01:54:33.783Z,16.00
2018-09-28T01:55:33.859Z,17.00
2018-09-28T01:56:33.734Z,18.80
2018-09-28T01:57:33.765Z,16.50
2018-09-28T01:58:33.693Z,19.20
2018-09-28T01:59:33.681Z,16.50
2018-09-28T02:00:33.649Z,17.10
2018-09-28T02:02:21.101Z,16.40
2018-09-28T02:03:21.093Z,17.20
2018-09-28T02:04:21.000Z,15.60
2018-09-28T02:05:21.005Z,14.70
2018-09-28T02:06:20.952Z,15.00
2018-09-28T02:07:21.027Z,15.30
2018-09-28T02:08:20.894Z,13.60
2018-09-28T02:09:20.940Z,15.90
2018-09-28T02:10:20.844Z,13.90
2018-09-28T02:11:20.852Z,18.80
2018-09-28T02:12:20.823Z,15.70
2018-09-28T02:13:20.864Z,16.30
2018-09-28T02:14:20.798Z,14.60
2018-09-28T02:15:20.803Z,18.80
2018-09-28T02:16:20.685Z,16.10
2018-09-28T02:17:20.706Z,20.10
2018-09-28T02:18:20.666Z,19.30
2018-09-28T02:19:21.713Z,18.70
2018-09-28T02:20:20.589Z,19.20
2018-09-28T02:21:20.598Z,22.90
2018-09-28T02:22:20.526Z,20.90
2018-09-28T02:23:20.606Z,24.10
2018-09-28T02:24:20.518Z,21.20
2018-09-28T02:25:20.530Z,22.40
2018-09-28T02:26:20.466Z,23.70
2018-09-28T02:27:20.430Z,22.90
2018-09-28T02:28:20.391Z,20.90
2018-09-28T02:29:20.464Z,20.60
2018-09-28T02:30:20.326Z,20.00
2018-09-28T02:31:21.391Z,21.30
2018-09-28T02:32:20.284Z,22.40
2018-09-28T02:33:20.285Z,23.50
2018-09-28T02:34:20.248Z,21.60
2018-09-28T02:35:20.292Z,22.90
2018-09-28T02:36:20.172Z,21.80
2018-09-28T02:37:20.196Z,21.10
2018-09-28T02:38:20.147Z,21.70
2018-09-28T02:39:20.096Z,24.70
2018-09-28T02:40:20.066Z,22.50
2018-09-28T02:41:20.123Z,23.00
2018-09-28T02:42:20.017Z,22.40
2018-09-28T02:43:20.033Z,24.00
2018-09-28T02:44:19.965Z,25.10
2018-09-28T02:45:20.035Z,26.30
2018-09-28T02:46:19.901Z,25.30
2018-09-28T02:47:19.951Z,23.70
2018-09-28T02:48:19.847Z,23.20
2018-09-28T02:49:19.875Z,22.40
2018-09-28T02:50:34.405Z,18.60
2018-09-28T02:51:19.787Z,20.20
2018-09-28T02:52:19.786Z,21.90
2018-09-28T02:54:05.759Z,23.00
2018-09-28T02:55:05.866Z,23.10
2018-09-28T02:56:59.510Z,23.80
2018-09-28T02:57:59.541Z,23.80
2018-09-28T02:58:59.448Z,24.10
2018-09-28T02:59:59.450Z,22.50
2018-09-28T03:00:59.404Z,25.40
2018-09-28T03:01:59.466Z,22.30
2018-09-28T03:02:59.348Z,22.90
2018-09-28T03:03:59.379Z,22.40
2018-09-28T03:04:59.291Z,25.00
2018-09-28T03:05:59.284Z,25.40
2018-09-28T03:06:59.247Z,26.20
2018-09-28T03:07:59.298Z,22.70
2018-09-28T03:08:59.197Z,22.60
2018-09-28T03:09:59.228Z,27.40
2018-09-28T03:10:59.136Z,24.80
2018-09-28T03:11:59.125Z,26.50
2018-09-28T03:12:59.086Z,25.80
2018-09-28T03:13:59.138Z,22.30
2018-09-28T03:14:59.027Z,25.80
2018-09-28T03:15:59.049Z,21.50
2018-09-28T03:16:58.983Z,23.40
2018-09-28T03:17:59.072Z,24.00
2018-09-28T03:18:58.919Z,22.40
2018-09-28T03:19:58.968Z,25.00
2018-09-28T03:20:58.885Z,25.10
2018-09-28T03:21:59.904Z,24.00
2018-09-28T03:22:58.840Z,26.30
2018-09-28T03:23:58.888Z,25.50
2018-09-28T03:24:58.765Z,22.50
2018-09-28T03:25:58.830Z,26.10
2018-09-28T03:26:58.705Z,27.30
2018-09-28T03:27:58.717Z,28.50
2018-09-28T03:28:58.674Z,25.10
2018-09-28T03:29:58.739Z,24.70
2018-09-28T03:30:58.595Z,25.20
2018-09-28T03:31:58.645Z,24.20
2018-09-28T03:32:58.554Z,26.00
2018-09-28T03:33:58.549Z,24.20
2018-09-28T03:34:58.523Z,26.90
2018-09-28T03:35:58.566Z,23.70
2018-09-28T03:36:58.442Z,27.80
2018-09-28T03:37:58.477Z,25.40
2018-09-28T03:38:58.414Z,24.70
2018-09-28T03:39:58.417Z,25.60
2018-09-28T03:40:58.355Z,24.50
2018-09-28T03:41:58.425Z,27.70
2018-09-28T03:42:58.355Z,24.00
2018-09-28T03:43:58.301Z,27.30
2018-09-28T03:44:58.235Z,27.30
2018-09-28T03:45:58.337Z,29.70
2018-09-28T03:46:58.181Z,26.20
2018-09-28T03:47:58.228Z,29.70
2018-09-28T03:48:58.128Z,25.00
2018-09-28T03:49:58.142Z,28.80
2018-09-28T03:50:58.083Z,28.20
2018-09-28T03:51:58.148Z,25.50
2018-09-28T03:52:58.015Z,26.00
2018-09-28T03:53:58.058Z,26.00
2018-09-28T03:54:57.968Z,25.30
2018-09-28T03:55:57.981Z,26.70
2018-09-28T03:56:57.938Z,26.40
2018-09-28T03:57:57.987Z,26.60
2018-09-28T03:58:57.864Z,27.80
2018-09-28T03:59:57.895Z,27.40
2018-09-28T04:00:57.810Z,26.50
2018-09-28T04:01:57.818Z,26.60
2018-09-28T04:02:57.776Z,25.90
2018-09-28T04:03:57.821Z,25.80
2018-09-28T04:04:57.702Z,26.00
2018-09-28T04:05:57.733Z,27.90
2018-09-28T04:06:57.658Z,28.70
2018-09-28T04:07:58.670Z,33.10
2018-09-28T04:08:57.611Z,23.60
2018-09-28T04:09:58.678Z,29.00
2018-09-28T04:10:57.551Z,27.60
2018-09-28T04:11:57.570Z,27.40
2018-09-28T04:12:57.533Z,28.40
2018-09-28T04:13:57.578Z,29.70
2018-09-28T04:14:57.463Z,28.50
2018-09-28T04:15:57.485Z,25.30
2018-09-28T04:16:57.401Z,27.80
2018-09-28T04:17:57.398Z,31.00
2018-09-28T04:18:57.338Z,29.40
2018-09-28T04:19:57.408Z,27.10
2018-09-28T04:20:57.291Z,26.80
2018-09-28T04:21:57.436Z,25.40
2018-09-28T04:22:57.265Z,25.60
2018-09-28T04:23:57.234Z,28.30
2018-09-28T04:24:57.200Z,27.70
2018-09-28T04:25:58.282Z,28.10
2018-09-28T04:26:57.137Z,28.60
2018-09-28T04:27:57.158Z,27.10
2018-09-28T04:28:57.100Z,25.90
2018-09-28T04:29:58.096Z,27.60
2018-09-28T04:30:57.031Z,28.20
2018-09-28T04:31:57.080Z,32.70
2018-09-28T04:32:56.973Z,29.10
2018-09-28T04:33:56.997Z,26.50
2018-09-28T04:34:56.933Z,29.20
2018-09-28T04:35:57.010Z,26.40
2018-09-28T04:36:56.881Z,31.30
2018-09-28T04:37:56.918Z,36.50
2018-09-28T04:38:56.817Z,34.60
2018-09-28T04:39:56.936Z,30.10
2018-09-28T04:40:56.777Z,29.10
2018-09-28T04:41:56.836Z,30.50
2018-09-28T04:42:56.718Z,33.80
2018-09-28T04:43:56.750Z,28.40
2018-09-28T04:44:56.660Z,28.00
2018-09-28T04:45:56.663Z,31.40
2018-09-28T04:46:56.607Z,32.10
2018-09-28T04:47:56.679Z,33.10
2018-09-28T04:48:56.562Z,29.40
2018-09-28T04:49:56.576Z,29.70
2018-09-28T04:50:56.509Z,27.80
2018-09-28T04:51:56.592Z,33.40
2018-09-28T04:52:56.463Z,31.00
2018-09-28T04:53:56.501Z,30.10
2018-09-28T04:54:56.416Z,27.20
2018-09-28T04:55:56.412Z,28.30
2018-09-28T04:56:56.361Z,31.20
2018-09-28T04:57:56.425Z,30.90
2018-09-28T04:58:56.304Z,26.50
2018-09-28T04:59:56.347Z,27.70
2018-09-28T05:00:56.245Z,27.50
2018-09-28T05:01:56.244Z,31.00
2018-09-28T05:02:56.198Z,27.40
2018-09-28T05:03:56.266Z,31.30
2018-09-28T08:51:13.969Z,26.60
2018-09-28T08:52:13.909Z,14.60
2018-09-28T08:53:13.868Z,7.80
2018-09-28T08:54:13.875Z,12.00
2018-09-28T08:55:13.852Z,11.10
2018-09-28T08:56:13.901Z,8.40
2018-09-28T08:57:13.774Z,9.10
2018-09-28T08:58:13.923Z,9.10
2018-09-28T08:59:13.724Z,12.80
2018-09-28T09:00:13.839Z,14.20
2018-09-28T09:01:13.669Z,10.80
2018-09-28T09:02:13.808Z,9.50
2018-09-28T09:03:13.610Z,11.50
2018-09-28T09:04:13.755Z,15.30
2018-09-28T09:05:13.556Z,11.90
2018-09-28T09:06:13.664Z,9.10
2018-09-28T09:07:13.499Z,10.30
2018-09-28T09:08:13.573Z,6.60
2018-09-28T09:09:13.440Z,9.50
2018-09-28T09:10:13.428Z,7.60
2018-09-28T09:11:13.385Z,10.50
2018-09-28T09:12:13.359Z,9.40
2018-09-28T09:13:13.337Z,11.00
2018-09-28T09:14:13.315Z,10.10
2018-09-28T09:15:13.501Z,9.30
2018-09-28T09:16:13.273Z,5.10
2018-09-28T09:17:13.238Z,7.20
2018-09-28T09:18:13.359Z,12.00
2018-09-28T09:19:13.184Z,7.30
2018-09-28T09:20:13.593Z,10.00
2018-09-28T09:21:13.139Z,11.20
2018-09-28T09:22:13.110Z,7.50
2018-09-28T09:23:13.094Z,9.30
2018-09-28T09:24:13.059Z,15.70
2018-09-28T09:25:13.046Z,11.30
2018-09-28T09:26:13.019Z,15.70
2018-09-28T09:27:12.986Z,5.80
2018-09-28T09:28:12.961Z,10.70
2018-09-28T09:29:12.934Z,11.80
2018-09-28T09:30:12.954Z,6.90
2018-09-28T09:31:12.901Z,13.40
2018-09-28T09:32:12.849Z,12.40
2018-09-28T09:33:12.839Z,10.20
2018-09-28T09:35:02.905Z,18.10
2018-09-28T09:36:02.830Z,16.20
2018-09-28T09:37:02.833Z,7.10
2018-09-28T09:38:02.805Z,11.10
2018-09-28T09:39:02.843Z,10.40
2018-09-28T09:40:02.739Z,11.90
2018-09-28T09:41:02.779Z,11.90
2018-09-28T09:42:02.685Z,10.30
2018-09-28T09:43:02.679Z,13.50
2018-09-28T09:44:02.634Z,11.80
2018-09-28T09:45:02.664Z,23.80
2018-09-28T09:46:02.593Z,10.90
2018-09-28T09:47:02.672Z,8.70
2018-09-28T09:48:02.540Z,15.50
2018-09-28T09:49:02.522Z,20.10
2018-09-28T09:50:02.532Z,10.60
2018-09-28T09:51:02.455Z,8.50
2018-09-28T09:52:02.451Z,10.70
2018-09-28T09:53:02.431Z,7.70
2018-09-28T09:54:02.436Z,11.80
2018-09-28T09:55:02.358Z,9.10
2018-09-28T09:56:02.550Z,7.90
2018-09-28T09:57:02.313Z,8.30
2018-09-28T09:58:02.490Z,8.10
2018-09-28T09:59:02.265Z,8.10
2018-09-28T10:00:02.544Z,11.40
2018-09-28T10:01:02.214Z,7.90
2018-09-28T10:02:02.339Z,8.60
2018-09-28T10:03:02.162Z,12.80
2018-09-28T10:04:02.225Z,13.00
2018-09-28T10:05:02.110Z,7.10
2018-09-28T10:06:02.098Z,8.60
2018-09-28T10:07:02.064Z,9.80
2018-09-28T10:08:02.130Z,5.60
2018-09-28T10:09:02.009Z,8.40
2018-09-28T10:10:02.036Z,13.20
2018-09-28T10:11:01.961Z,15.30
2018-09-28T10:12:01.925Z,9.90
2018-09-28T10:13:01.976Z,8.70
2018-09-28T10:14:01.870Z,8.80
2018-09-28T10:15:02.066Z,9.80
2018-09-28T10:16:01.810Z,8.90
2018-09-28T10:17:01.889Z,9.10
2018-09-28T10:18:01.757Z,9.10
2018-09-28T10:19:01.802Z,11.10
2018-09-28T10:20:01.721Z,14.60
2018-09-28T10:21:02.730Z,11.50
2018-09-28T10:22:01.674Z,13.90
2018-09-28T10:23:01.737Z,10.70
2018-09-28T10:24:01.596Z,10.10
2018-09-28T10:25:47.703Z,15.40
2018-09-28T10:26:47.719Z,10.20
2018-09-28T10:27:47.705Z,8.20
2018-09-28T10:28:47.734Z,12.10
2018-09-28T10:29:47.566Z,7.40
2018-09-28T10:30:47.711Z,7.60
2018-09-28T10:31:47.522Z,9.40
2018-09-28T10:32:47.633Z,9.50
2018-09-28T10:33:47.473Z,7.70
2018-09-28T10:34:47.658Z,9.00
2018-09-28T10:35:47.428Z,9.50
2018-09-28T10:36:47.451Z,7.40
2018-09-28T10:37:47.359Z,9.50
2018-09-28T10:38:48.488Z,8.10
2018-09-28T10:39:47.359Z,9.70
2018-09-28T10:40:47.550Z,7.10
2018-09-28T10:41:47.260Z,7.20
2018-09-28T10:42:47.398Z,9.50
2018-09-28T10:43:47.234Z,7.40
2018-09-28T10:44:47.290Z,9.90
2018-09-28T10:45:47.228Z,7.60
2018-09-28T10:46:47.284Z,7.80
2018-09-28T10:47:47.109Z,10.40
2018-09-28T10:48:47.119Z,7.80
2018-09-28T10:49:47.096Z,7.40
2018-09-28T10:50:47.152Z,9.80
2018-09-28T10:51:47.050Z,8.00
2018-09-28T10:52:47.154Z,7.70
2018-09-28T10:53:46.957Z,9.20
2018-09-28T10:54:46.919Z,10.70
2018-09-28T10:55:46.899Z,9.90
2018-09-28T10:56:46.968Z,11.30
2018-09-28T10:57:46.866Z,11.90
2018-09-28T10:58:46.904Z,10.40
2018-09-28T10:59:46.788Z,6.60
2018-09-28T11:00:46.795Z,7.90
2018-09-28T11:01:46.749Z,9.30
2018-09-28T11:02:46.826Z,11.50
2018-09-28T11:03:46.765Z,7.50
2018-09-28T11:04:46.815Z,9.70
2018-09-28T11:05:46.637Z,8.80
2018-09-28T11:06:46.646Z,7.60
2018-09-28T11:07:46.598Z,7.70
2018-09-28T11:08:46.674Z,14.10
2018-09-28T11:09:46.612Z,7.90
2018-09-28T11:10:46.638Z,6.60
2018-09-28T11:11:46.482Z,9.20
2018-09-28T11:12:46.471Z,6.70
2018-09-28T11:13:46.496Z,8.10
2018-09-28T11:14:46.410Z,7.00
2018-09-28T11:15:46.505Z,7.80
2018-09-28T11:16:46.344Z,10.30
2018-09-28T11:17:46.412Z,13.10
2018-09-28T11:18:46.360Z,10.30
2018-09-28T11:19:46.321Z,9.20
2018-09-28T11:20:46.248Z,9.70
2018-09-28T11:21:46.360Z,6.40
2018-09-28T11:22:46.188Z,8.30
2018-09-28T11:23:46.231Z,6.40
2018-09-28T11:24:46.179Z,5.80
2018-09-28T11:25:46.229Z,4.30
2018-09-28T11:26:46.086Z,7.50
2018-09-28T11:27:46.198Z,5.10
2018-09-28T11:28:46.039Z,7.60
2018-09-28T11:29:46.046Z,5.50
2018-09-28T11:30:45.991Z,7.30
2018-09-28T11:31:46.064Z,6.80
2018-09-28T11:32:45.947Z,6.10
2018-09-28T11:33:46.014Z,7.80
2018-09-28T11:34:45.897Z,4.00
2018-09-28T11:35:45.890Z,5.10
2018-09-28T11:36:45.829Z,10.20
2018-09-28T11:37:45.951Z,10.90
2018-09-28T11:38:45.796Z,7.50
2018-09-28T11:39:45.891Z,7.00
2018-09-28T11:40:45.719Z,5.80
2018-09-28T11:41:45.717Z,9.10
2018-09-28T11:42:45.667Z,6.40
2018-09-28T11:43:45.769Z,8.90
2018-09-28T11:44:45.613Z,9.30
2018-09-28T11:45:45.817Z,9.80
2018-09-28T11:46:45.588Z,3.90
2018-09-28T11:47:45.550Z,6.00
2018-09-28T11:48:45.519Z,8.80
2018-09-28T11:49:45.589Z,6.30
2018-09-28T11:50:45.491Z,5.90
2018-09-28T11:51:45.475Z,10.60
2018-09-28T11:52:45.412Z,6.20
2018-09-28T11:53:45.421Z,9.80
2018-09-28T11:54:45.397Z,6.70
2018-09-28T11:55:45.344Z,8.60
2018-09-28T11:56:45.406Z,7.00
2018-09-28T11:57:45.345Z,7.10
2018-09-28T11:58:45.318Z,12.70
2018-09-28T11:59:45.236Z,4.90
2018-09-28T12:00:45.248Z,8.50
2018-09-28T12:01:45.185Z,6.50
2018-09-28T12:02:46.275Z,9.90
2018-09-28T12:03:45.177Z,8.80
2018-09-28T12:04:45.176Z,6.00
2018-09-28T12:05:45.077Z,4.70
2018-09-28T12:06:45.196Z,7.60
2018-09-28T12:07:45.033Z,6.30
2018-09-28T12:08:45.069Z,9.90
2018-09-28T12:09:45.043Z,6.80
2018-09-28T12:10:45.041Z,6.00
2018-09-28T12:11:44.956Z,7.10
2018-09-28T12:12:45.095Z,6.30
2018-09-28T12:13:44.888Z,9.30
2018-09-28T12:14:45.019Z,11.50
2018-09-28T12:15:44.852Z,6.30
2018-09-28T12:16:44.976Z,6.90
2018-09-28T12:17:44.779Z,8.50
2018-09-28T12:18:46.051Z,6.40
2018-09-28T12:19:44.723Z,5.90
2018-09-28T12:20:44.739Z,7.40
2018-09-28T12:21:44.707Z,5.10
2018-09-28T12:22:44.658Z,7.90
2018-09-28T12:23:44.613Z,6.40
2018-09-28T12:24:44.701Z,5.20
2018-09-28T12:25:44.636Z,8.30
2018-09-28T12:26:44.575Z,5.80
2018-09-28T12:27:44.610Z,6.20
2018-09-28T12:28:44.584Z,6.90
2018-09-28T12:29:44.454Z,6.50
2018-09-28T12:30:49.450Z,8.40
2018-09-28T12:31:44.409Z,8.20
2018-09-28T12:32:45.517Z,8.30
2018-09-28T12:33:44.418Z,7.10
2018-09-28T12:34:44.418Z,4.20
2018-09-28T12:35:44.389Z,8.90
2018-09-28T12:36:44.338Z,3.00
2018-09-28T12:37:44.256Z,5.00
2018-09-28T12:38:44.341Z,6.20
2018-09-28T12:39:44.301Z,5.30
2018-09-28T12:40:44.251Z,6.70
2018-09-28T12:41:44.155Z,4.60
2018-09-28T12:42:44.251Z,5.80
2018-09-28T12:43:44.114Z,7.20
2018-09-28T12:44:45.182Z,10.00
2018-09-28T12:45:44.145Z,7.60
2018-09-28T12:46:44.092Z,8.80
2018-09-28T12:47:44.004Z,7.20
2018-09-28T12:48:45.060Z,7.40
2018-09-28T12:49:43.956Z,6.50
2018-09-28T12:50:45.993Z,7.50
2018-09-28T12:51:43.893Z,8.80
2018-09-28T12:52:45.977Z,7.90
2018-09-28T12:53:43.852Z,4.60
2018-09-28T12:54:44.002Z,8.40
2018-09-28T12:55:43.829Z,6.60
2018-09-28T12:56:43.981Z,7.00
2018-09-28T12:57:43.742Z,7.70
2018-09-28T12:58:43.869Z,9.00
2018-09-28T12:59:43.690Z,9.30
2018-09-28T13:00:43.972Z,6.60
2018-09-28T13:01:43.730Z,8.00
2018-09-28T13:02:43.753Z,7.20
2018-09-28T13:03:43.588Z,5.50
2018-09-28T13:04:45.636Z,7.40
2018-09-28T13:05:43.532Z,6.50
2018-09-28T13:06:43.774Z,3.00
2018-09-28T13:07:43.547Z,4.60
2018-09-28T13:08:43.548Z,6.80
2018-09-28T13:09:43.433Z,7.40
2018-09-28T13:10:44.455Z,6.50
2018-09-28T13:11:43.377Z,4.80
2018-09-28T13:12:45.429Z,4.40
2018-09-28T13:13:43.335Z,5.60
2018-09-28T13:14:43.375Z,4.70
2018-09-28T13:15:43.280Z,6.30
2018-09-28T13:16:44.607Z,5.70
2018-09-28T13:17:43.231Z,8.00
2018-09-28T13:18:44.324Z,7.80
2018-09-28T13:19:43.175Z,5.50
2018-09-28T13:20:43.258Z,4.70
2018-09-28T13:21:43.196Z,4.70
2018-09-28T13:22:45.165Z,7.50
2018-09-28T13:23:43.072Z,6.80
2018-09-28T13:24:49.928Z,4.50
2018-09-28T13:25:43.014Z,6.60
2018-09-28T13:26:44.098Z,7.40
2018-09-28T13:27:42.984Z,7.00
2018-09-28T13:28:47.946Z,7.10
2018-09-28T13:29:42.915Z,10.60
2018-09-28T13:30:43.994Z,6.20
2018-09-28T13:31:42.861Z,6.90
2018-09-28T13:32:43.882Z,9.20
2018-09-28T13:33:42.818Z,3.20
2018-09-28T13:34:42.866Z,4.10
2018-09-28T13:35:42.766Z,3.10
2018-09-28T13:36:42.833Z,7.90
2018-09-28T13:37:42.708Z,4.70
2018-09-28T13:38:42.994Z,7.30
2018-09-28T13:39:42.662Z,6.70
2018-09-28T13:40:42.691Z,8.20
2018-09-28T13:41:42.600Z,2.90
2018-09-28T13:42:42.676Z,5.70
2018-09-28T13:43:42.545Z,3.30
2018-09-28T13:44:42.631Z,3.30
2018-09-28T13:45:42.500Z,5.10
2018-09-28T13:46:42.582Z,3.80
2018-09-28T13:47:42.450Z,3.60
2018-09-28T13:48:42.501Z,5.20
2018-09-28T13:49:42.398Z,3.50
2018-09-28T13:50:43.541Z,8.10
2018-09-28T13:51:42.345Z,4.70
2018-09-28T13:52:48.952Z,6.00
2018-09-28T13:53:42.295Z,5.30
2018-09-28T13:54:46.942Z,5.10
2018-09-28T13:55:42.237Z,5.70
2018-09-28T13:56:42.422Z,5.70
2018-09-28T13:57:42.188Z,4.20
2018-09-28T13:58:42.333Z,9.30
2018-09-28T13:59:42.149Z,7.90
2018-09-28T14:00:42.272Z,4.80
2018-09-28T14:01:42.101Z,7.20
2018-09-28T14:02:42.190Z,6.00
2018-09-28T14:03:42.041Z,5.40
2018-09-28T14:04:42.084Z,3.70
2018-09-28T14:05:42.021Z,5.50
2018-09-28T14:06:42.174Z,5.90
2018-09-28T14:07:41.951Z,3.50
2018-09-28T14:08:41.996Z,5.90
2018-09-28T14:09:41.907Z,2.80
2018-09-28T14:10:41.935Z,4.40
2018-09-28T14:11:41.852Z,4.50
2018-09-28T14:12:44.396Z,7.20
2018-09-28T14:13:41.894Z,5.30
2018-09-28T14:14:41.835Z,5.30
2018-09-28T14:15:42.825Z,4.20
2018-09-28T14:16:41.750Z,7.30
2018-09-28T14:17:41.694Z,6.80
2018-09-28T14:18:41.675Z,5.70
2018-09-28T14:19:42.761Z,8.00
2018-09-28T14:20:41.668Z,3.70
2018-09-28T14:21:42.668Z,4.10
2018-09-28T14:22:41.629Z,7.20
2018-09-28T14:23:41.660Z,2.50
2018-09-28T14:24:41.546Z,6.00
2018-09-28T14:25:41.567Z,6.30
2018-09-28T14:26:41.504Z,5.10
2018-09-28T14:27:41.479Z,4.50
2018-09-28T14:28:41.459Z,4.60
2018-09-28T14:29:42.521Z,5.60
2018-09-28T14:30:41.426Z,5.70
2018-09-28T14:31:41.405Z,9.60
2018-09-28T14:32:41.339Z,7.10
2018-09-28T14:33:41.378Z,9.70
2018-09-28T14:34:41.279Z,3.80
2018-09-28T14:35:41.328Z,3.60
2018-09-28T14:36:41.247Z,6.40
2018-09-28T14:37:41.244Z,5.10
2018-09-28T14:38:41.284Z,3.70
2018-09-28T14:39:41.300Z,6.20
2018-09-28T14:40:41.146Z,4.30
2018-09-28T14:41:41.245Z,3.80
2018-09-28T14:42:41.080Z,4.70
2018-09-28T14:43:41.134Z,6.60
2018-09-28T14:44:41.029Z,5.00
2018-09-28T14:45:41.246Z,5.70
2018-09-28T14:46:41.028Z,3.20
2018-09-28T14:47:41.050Z,3.70
2018-09-28T14:48:40.964Z,5.70
2018-09-28T14:49:40.964Z,8.00
2018-09-28T14:50:40.880Z,4.90
2018-09-28T14:51:40.976Z,3.30
2018-09-28T14:52:40.856Z,5.90
2018-09-28T14:53:40.887Z,3.50
2018-09-28T14:54:40.762Z,3.20
2018-09-28T14:55:40.897Z,3.20
2018-09-28T14:56:40.718Z,3.50
2018-09-28T14:57:40.812Z,1.80
2018-09-28T14:58:40.688Z,1.20
2018-09-28T14:59:40.740Z,6.60
2018-09-28T15:00:40.713Z,4.60
2018-09-28T15:01:40.733Z,2.30
2018-09-28T15:02:40.594Z,3.00
2018-09-28T15:03:40.701Z,3.90
2018-09-28T15:04:40.520Z,4.00
2018-09-28T15:05:40.558Z,3.60
2018-09-28T15:06:40.529Z,3.70
2018-09-28T15:07:40.601Z,4.60
2018-09-28T15:08:40.441Z,2.90
2018-09-28T15:09:40.488Z,3.80
2018-09-28T15:10:40.364Z,5.40
2018-09-28T15:11:40.498Z,6.60
2018-09-28T15:12:40.354Z,3.70
2018-09-28T15:13:40.418Z,2.40
2018-09-28T15:14:40.263Z,4.00
2018-09-28T15:15:40.319Z,3.10
2018-09-28T15:16:40.228Z,5.80
2018-09-28T15:17:40.344Z,1.60
2018-09-28T15:18:40.187Z,4.20
2018-09-28T15:19:45.938Z,5.50
2018-09-28T15:20:40.094Z,3.40
2018-09-28T15:21:40.222Z,5.10
2018-09-28T15:22:40.053Z,3.60
2018-09-28T15:23:40.143Z,4.70
2018-09-28T15:24:40.048Z,5.60
2018-09-28T15:25:40.040Z,4.50
2018-09-28T15:26:39.959Z,2.50
2018-09-28T15:27:40.008Z,4.40
2018-09-28T15:28:39.901Z,2.80
2018-09-28T15:29:40.000Z,5.90
2018-09-28T15:30:39.848Z,3.10
2018-09-28T15:31:39.881Z,5.40
2018-09-28T15:32:39.807Z,4.20
2018-09-28T15:33:39.888Z,5.30
2018-09-28T15:34:39.747Z,6.20
2018-09-28T15:35:39.802Z,4.20
2018-09-28T15:36:39.708Z,5.30
2018-09-28T15:37:39.708Z,7.40
2018-09-28T15:38:39.657Z,5.40
2018-09-28T15:39:39.739Z,3.60
2018-09-28T15:40:41.359Z,4.40
2018-09-28T15:41:39.577Z,8.60
2018-09-28T15:42:39.551Z,4.00
2018-09-28T15:43:39.540Z,4.20
2018-09-28T15:44:39.538Z,5.30
2018-09-28T15:45:39.484Z,7.10
2018-09-28T15:46:39.488Z,5.00
2018-09-28T15:47:39.488Z,3.40
2018-09-28T15:48:39.410Z,7.50
2018-09-28T15:49:39.398Z,8.60
2018-09-28T15:50:39.371Z,7.40
2018-09-28T15:51:39.350Z,7.30
2018-09-28T15:52:39.342Z,5.10
2018-09-28T15:53:39.306Z,2.90
2018-09-28T15:54:39.270Z,2.80
2018-09-28T15:55:39.246Z,6.70
2018-09-28T15:56:39.282Z,5.40
2018-09-28T15:57:39.186Z,6.30
2018-09-28T15:58:39.178Z,6.00
2018-09-28T15:59:40.215Z,6.30
2018-09-28T16:00:39.169Z,6.10
2018-09-28T16:01:39.134Z,5.70
2018-09-28T16:03:38.007Z,35.70
2018-09-28T16:04:38.032Z,4.60
2018-09-28T16:05:37.947Z,5.60
2018-09-28T16:06:37.929Z,4.60
2018-09-28T16:07:37.866Z,3.40
2018-09-28T16:08:37.938Z,6.80
2018-09-28T16:09:37.821Z,4.20
2018-09-28T16:10:37.848Z,4.60
2018-09-28T16:11:37.825Z,6.00
2018-09-28T16:12:37.761Z,6.70
2018-09-28T16:13:37.723Z,7.50
2018-09-28T16:14:37.780Z,7.50
2018-09-28T16:15:37.678Z,7.80
2018-09-28T16:16:37.673Z,6.30
2018-09-28T16:17:37.631Z,3.80
2018-09-28T16:18:37.698Z,4.90
2018-09-28T16:19:37.571Z,5.50
2018-09-28T16:20:37.597Z,5.70
2018-09-28T16:21:37.546Z,7.70
2018-09-28T16:22:37.515Z,6.70
2018-09-28T16:23:37.527Z,4.80
2018-09-28T16:24:37.459Z,4.00
2018-09-28T16:25:37.505Z,4.80
2018-09-28T16:26:37.409Z,6.00
2018-09-28T16:27:37.410Z,10.10
2018-09-28T16:28:37.369Z,7.00
2018-09-28T16:29:37.425Z,4.80
2018-09-28T16:30:37.314Z,7.00
2018-09-28T16:31:37.338Z,5.40
2018-09-28T16:32:37.263Z,4.30
2018-09-28T16:33:37.280Z,2.90
2018-09-28T16:34:37.205Z,3.10
2018-09-28T16:35:37.224Z,5.10
2018-09-28T16:36:37.165Z,4.50
2018-09-28T16:37:37.130Z,5.80
2018-09-28T16:38:37.104Z,11.80
2018-09-28T16:39:37.100Z,5.30
2018-09-28T16:40:37.056Z,5.00
2018-09-28T16:41:37.040Z,6.30
2018-09-28T16:42:37.010Z,7.20
2018-09-28T16:44:23.221Z,10.00
2018-09-28T16:45:23.166Z,8.40
2018-09-28T16:46:23.155Z,9.10
2018-09-28T16:47:23.118Z,3.30
2018-09-28T16:48:23.089Z,6.10
2018-09-28T16:49:23.076Z,11.00
2018-09-28T16:50:23.043Z,7.70
2018-09-28T16:51:23.021Z,4.40
2018-09-28T16:52:22.987Z,5.40
2018-09-28T16:53:22.986Z,6.30
2018-09-28T16:54:22.937Z,4.00
2018-09-28T16:55:22.921Z,8.30
2018-09-28T16:56:22.895Z,7.00
2018-09-28T16:57:22.882Z,5.90
2018-09-28T16:58:22.853Z,4.30
2018-09-28T16:59:22.830Z,7.70
2018-09-28T17:00:22.836Z,7.40